createdAt,value
2023-05-19T00:01:22.566Z,23.57
2023-05-19T00:03:52.551Z,23.82
2023-05-19T00:06:27.621Z,23.84
2023-05-19T00:08:59.612Z,23.33
2023-05-19T00:11:27.217Z,23.30
2023-05-19T00:13:55.405Z,23.02
2023-05-19T00:16:24.017Z,23.14
2023-05-19T00:18:51.654Z,23.15
2023-05-19T00:21:18.580Z,23.06
2023-05-19T00:23:45.567Z,22.95
2023-05-19T00:26:12.445Z,23.12
2023-05-19T00:28:46.091Z,23.05
2023-05-19T00:31:12.680Z,23.01
2023-05-19T00:33:39.305Z,22.94
2023-05-19T00:36:06.716Z,22.86
2023-05-19T00:38:35.396Z,22.84
2023-05-19T00:41:03.389Z,22.99
2023-05-19T00:43:30.325Z,23.09
2023-05-19T00:45:58.091Z,23.27
2023-05-19T00:48:25.625Z,23.20
2023-05-19T00:50:54.885Z,22.95
2023-05-19T00:53:23.063Z,22.91
2023-05-19T00:55:49.770Z,22.82
2023-05-19T00:58:17.089Z,22.91
2023-05-19T01:00:44.233Z,22.86
2023-05-19T01:03:15.158Z,22.93
2023-05-19T01:05:44.601Z,22.72
2023-05-19T01:08:11.796Z,22.41
2023-05-19T01:10:38.458Z,22.75
2023-05-19T01:13:06.381Z,22.44
2023-05-19T01:16:07.061Z,22.28
2023-05-19T01:18:39.840Z,21.78
2023-05-19T01:21:18.111Z,21.89
2023-05-19T01:24:01.423Z,22.23
2023-05-19T01:26:47.209Z,21.90
2023-05-19T01:29:36.760Z,22.14
2023-05-19T01:32:04.674Z,21.76
2023-05-19T01:34:31.903Z,22.09
2023-05-19T01:37:01.435Z,22.08
2023-05-19T01:39:28.358Z,22.10
2023-05-19T01:41:55.844Z,22.08
2023-05-19T01:44:23.791Z,21.94
2023-05-19T01:46:50.999Z,21.91
2023-05-19T01:49:17.577Z,22.12
2023-05-19T01:51:44.976Z,22.13
2023-05-19T01:54:11.587Z,21.82
2023-05-19T01:57:11.187Z,21.82
2023-05-19T01:59:54.365Z,21.96
2023-05-19T02:02:45.956Z,21.71
2023-05-19T02:05:28.580Z,21.69
2023-05-19T02:08:13.952Z,21.67
2023-05-19T02:10:45.576Z,21.48
2023-05-19T02:13:14.366Z,21.49
2023-05-19T02:15:42.536Z,21.85
2023-05-19T02:18:11.672Z,22.00
2023-05-19T02:20:39.970Z,22.11
2023-05-19T02:23:07.081Z,22.09
2023-05-19T02:25:33.864Z,21.78
2023-05-19T02:28:00.538Z,21.53
2023-05-19T02:30:31.684Z,21.62
2023-05-19T02:33:00.443Z,21.95
2023-05-19T02:35:27.848Z,21.98
2023-05-19T02:37:54.516Z,21.95
2023-05-19T02:40:22.196Z,21.45
2023-05-19T02:42:49.627Z,21.36
2023-05-19T02:45:16.445Z,21.35
2023-05-19T02:47:43.197Z,21.52
2023-05-19T02:50:09.835Z,21.29
2023-05-19T02:52:36.524Z,21.41
2023-05-19T02:55:03.290Z,21.48
2023-05-19T02:57:31.612Z,21.63
2023-05-19T02:59:58.253Z,21.84
2023-05-19T03:02:25.068Z,21.87
2023-05-19T03:04:51.715Z,21.76
2023-05-19T03:07:18.403Z,21.71
2023-05-19T03:09:44.975Z,21.58
2023-05-19T03:12:11.588Z,21.68
2023-05-19T03:14:38.573Z,21.32
2023-05-19T03:17:07.583Z,21.34
2023-05-19T03:19:34.423Z,21.33
2023-05-19T03:22:01.033Z,21.77
2023-05-19T03:24:27.621Z,21.97
2023-05-19T03:26:55.073Z,22.04
2023-05-19T03:29:22.105Z,21.97
2023-05-19T03:31:48.688Z,22.02
2023-05-19T03:34:16.429Z,21.90
2023-05-19T03:36:44.915Z,21.85
2023-05-19T03:39:15.409Z,21.86
2023-05-19T03:41:42.172Z,21.91
2023-05-19T03:44:08.770Z,21.85
2023-05-19T03:46:35.381Z,21.84
2023-05-19T03:49:07.885Z,21.79
2023-05-19T03:51:58.009Z,21.56
2023-05-19T03:54:33.767Z,21.28
2023-05-19T03:57:00.451Z,21.64
2023-05-19T03:59:28.714Z,21.53
2023-05-19T04:01:57.671Z,21.69
2023-05-19T04:04:26.550Z,21.66
2023-05-19T04:06:53.197Z,21.66
2023-05-19T04:09:20.547Z,21.69
2023-05-19T04:11:47.175Z,21.69
2023-05-19T04:14:13.892Z,21.86
2023-05-19T04:16:41.601Z,21.69
2023-05-19T04:19:08.706Z,21.50
2023-05-19T04:21:35.342Z,21.51
2023-05-19T04:24:06.564Z,21.67
2023-05-19T04:26:34.303Z,21.66
2023-05-19T04:29:04.168Z,21.66
2023-05-19T04:31:31.102Z,21.82
2023-05-19T04:33:57.688Z,21.83
2023-05-19T04:36:24.547Z,21.93
2023-05-19T04:38:54.857Z,21.91
2023-05-19T04:41:23.356Z,22.08
2023-05-19T04:43:50.019Z,21.89
2023-05-19T04:46:18.289Z,21.94
2023-05-19T04:48:45.432Z,21.88
2023-05-19T04:51:14.052Z,21.89
2023-05-19T04:53:41.598Z,22.02
2023-05-19T04:56:13.547Z,22.02
2023-05-19T04:58:41.955Z,22.19
2023-05-19T05:01:09.524Z,22.14
2023-05-19T05:03:37.023Z,22.31
2023-05-19T05:06:04.469Z,22.17
2023-05-19T05:08:31.274Z,22.51
2023-05-19T05:10:59.335Z,22.21
2023-05-19T05:13:26.536Z,22.23
2023-05-19T05:15:54.109Z,22.46
2023-05-19T05:18:21.371Z,22.73
2023-05-19T05:20:48.418Z,22.79
2023-05-19T05:23:16.552Z,23.09
2023-05-19T05:25:46.846Z,23.26
2023-05-19T05:28:14.911Z,23.18
2023-05-19T05:30:43.502Z,23.28
2023-05-19T05:33:10.539Z,23.54
2023-05-19T05:35:39.142Z,23.61
2023-05-19T05:38:08.062Z,23.68
2023-05-19T05:40:36.165Z,23.51
2023-05-19T05:43:04.064Z,23.50
2023-05-19T05:45:34.594Z,23.68
2023-05-19T05:48:02.007Z,23.70
2023-05-19T05:50:30.093Z,24.07
2023-05-19T05:52:59.081Z,23.76
2023-05-19T05:55:27.001Z,23.99
2023-05-19T05:57:53.908Z,23.99
2023-05-19T06:00:22.299Z,23.73
2023-05-19T06:02:52.464Z,23.86
2023-05-19T06:05:20.273Z,23.81
2023-05-19T06:07:48.112Z,23.86
2023-05-19T06:10:19.963Z,23.84
2023-05-19T06:12:48.031Z,23.88
2023-05-19T06:15:15.433Z,24.08
2023-05-19T06:17:59.711Z,24.08
2023-05-19T06:20:26.567Z,23.94
2023-05-19T06:22:53.717Z,24.19
2023-05-19T06:25:21.842Z,24.70
2023-05-19T06:27:48.508Z,24.44
2023-05-19T06:30:15.930Z,24.31
2023-05-19T06:32:57.614Z,24.20
2023-05-19T06:35:25.411Z,24.72
2023-05-19T06:37:53.051Z,24.98
2023-05-19T06:40:20.348Z,24.65
2023-05-19T06:42:47.410Z,24.71
2023-05-19T06:45:16.635Z,24.71
2023-05-19T06:47:44.440Z,24.92
2023-05-19T06:50:11.253Z,24.96
2023-05-19T06:52:41.230Z,25.15
2023-05-19T06:55:08.153Z,25.16
2023-05-19T06:57:37.139Z,25.44
2023-05-19T07:00:06.065Z,25.54
2023-05-19T07:02:33.160Z,25.80
2023-05-19T07:04:59.856Z,25.78
2023-05-19T07:07:27.307Z,25.73
2023-05-19T07:09:55.475Z,25.91
2023-05-19T07:12:22.235Z,26.13
2023-05-19T07:14:48.829Z,26.65
2023-05-19T07:17:16.711Z,27.40
2023-05-19T07:19:44.982Z,26.80
2023-05-19T07:22:11.692Z,26.70
2023-05-19T07:24:38.237Z,26.41
2023-05-19T07:27:05.374Z,26.30
2023-05-19T07:29:31.915Z,25.94
2023-05-19T07:31:58.631Z,25.99
2023-05-19T07:34:25.304Z,26.14
2023-05-19T07:36:52.078Z,26.61
2023-05-19T07:39:19.023Z,26.79
2023-05-19T07:41:52.450Z,26.90
2023-05-19T07:44:19.191Z,26.75
2023-05-19T07:46:45.978Z,26.77
2023-05-19T07:49:12.641Z,26.73
2023-05-19T07:51:39.194Z,26.71
2023-05-19T07:54:05.871Z,26.84
2023-05-19T07:56:32.560Z,27.34
2023-05-19T07:58:59.112Z,27.46
2023-05-19T08:01:26.112Z,27.14
2023-05-19T08:03:53.158Z,27.17
2023-05-19T08:06:19.775Z,27.05
2023-05-19T08:08:47.216Z,27.31
2023-05-19T08:11:14.029Z,27.45
2023-05-19T08:13:41.035Z,27.52
2023-05-19T08:16:07.852Z,27.37
2023-05-19T08:18:34.554Z,27.75
2023-05-19T08:21:01.394Z,27.92
2023-05-19T08:23:28.158Z,27.82
2023-05-19T08:25:54.794Z,27.62
2023-05-19T08:28:21.459Z,27.91
2023-05-19T08:30:48.140Z,27.75
2023-05-19T08:33:14.898Z,27.90
2023-05-19T08:35:41.623Z,28.47
2023-05-19T08:38:08.221Z,28.95
2023-05-19T08:40:37.904Z,28.62
2023-05-19T08:43:04.576Z,28.58
2023-05-19T08:45:34.404Z,28.02
2023-05-19T08:48:01.317Z,27.96
2023-05-19T08:50:31.159Z,28.07
2023-05-19T08:53:31.772Z,28.21
2023-05-19T08:56:14.737Z,28.69
2023-05-19T08:58:43.898Z,28.10
2023-05-19T09:01:14.901Z,28.15
2023-05-19T09:03:43.422Z,28.30
2023-05-19T09:06:14.113Z,27.71
2023-05-19T09:08:42.526Z,28.27
2023-05-19T09:11:10.117Z,28.25
2023-05-19T09:13:36.893Z,28.18
2023-05-19T09:16:04.116Z,28.44
2023-05-19T09:18:31.364Z,28.44
2023-05-19T09:21:02.278Z,28.68
2023-05-19T09:23:31.601Z,28.84
2023-05-19T09:26:07.221Z,29.00
2023-05-19T09:28:36.297Z,29.19
2023-05-19T09:31:05.447Z,29.18
2023-05-19T09:33:38.185Z,29.03
2023-05-19T09:36:06.374Z,28.88
2023-05-19T09:38:33.098Z,28.66
2023-05-19T09:41:00.957Z,28.66
2023-05-19T09:43:33.313Z,28.61
2023-05-19T09:46:03.530Z,28.72
2023-05-19T09:48:30.460Z,28.96
2023-05-19T09:50:57.885Z,28.82
2023-05-19T09:53:25.384Z,29.09
2023-05-19T09:55:59.116Z,29.18
2023-05-19T09:58:26.844Z,29.64
2023-05-19T10:00:57.086Z,29.45
2023-05-19T10:03:25.160Z,29.41
2023-05-19T10:05:53.420Z,29.74
2023-05-19T10:08:21.453Z,29.63
2023-05-19T10:10:48.189Z,29.09
2023-05-19T10:13:17.581Z,28.84
2023-05-19T10:15:57.019Z,28.91
2023-05-19T10:18:26.892Z,29.16
2023-05-19T10:20:54.325Z,29.31
2023-05-19T10:23:21.067Z,29.11
2023-05-19T10:25:49.154Z,29.36
2023-05-19T10:28:18.370Z,29.50
2023-05-19T10:30:47.657Z,29.42
2023-05-19T10:33:18.117Z,29.38
2023-05-19T10:36:15.886Z,29.28
2023-05-19T10:38:52.129Z,29.10
2023-05-19T10:41:27.349Z,29.42
2023-05-19T10:44:17.534Z,29.52
2023-05-19T10:46:44.295Z,29.89
2023-05-19T10:49:19.592Z,29.64
2023-05-19T10:51:46.709Z,29.66
2023-05-19T10:54:15.972Z,29.57
2023-05-19T10:56:48.687Z,29.72
2023-05-19T10:59:32.501Z,29.87
2023-05-19T11:02:04.817Z,30.07
2023-05-19T11:05:07.522Z,29.96
2023-05-19T11:07:34.289Z,30.01
2023-05-19T11:10:05.951Z,29.43
2023-05-19T11:12:44.618Z,29.55
2023-05-19T11:15:15.730Z,29.55
2023-05-19T11:17:46.156Z,29.11
2023-05-19T11:20:29.720Z,29.48
2023-05-19T11:23:09.704Z,29.90
2023-05-19T11:25:43.025Z,30.02
2023-05-19T11:28:12.343Z,29.64
2023-05-19T11:30:42.592Z,29.65
2023-05-19T11:33:09.703Z,29.73
2023-05-19T11:35:37.148Z,30.03
2023-05-19T11:38:04.058Z,30.28
2023-05-19T11:40:30.776Z,30.12
2023-05-19T11:42:58.201Z,30.11
2023-05-19T11:45:26.254Z,30.24
2023-05-19T11:50:27.024Z,30.29
2023-05-19T11:52:56.850Z,30.35
2023-05-19T11:55:23.662Z,30.06
2023-05-19T11:58:05.555Z,30.00
2023-05-19T12:00:38.895Z,30.05
2023-05-19T12:03:06.206Z,30.55
2023-05-19T12:05:39.877Z,30.46
2023-05-19T12:08:08.887Z,30.04
2023-05-19T12:10:35.780Z,30.14
2023-05-19T12:13:03.309Z,29.67
2023-05-19T12:15:31.619Z,30.06
2023-05-19T12:18:00.133Z,30.36
2023-05-19T12:20:31.930Z,30.05
2023-05-19T12:23:00.198Z,29.88
2023-05-19T12:25:27.602Z,29.79
2023-05-19T12:27:59.049Z,30.15
2023-05-19T12:30:30.894Z,29.87
2023-05-19T12:32:58.275Z,29.82
2023-05-19T12:35:29.765Z,29.73
2023-05-19T12:37:56.505Z,30.08
2023-05-19T12:40:23.345Z,30.44
2023-05-19T12:42:53.360Z,30.15
2023-05-19T12:45:22.902Z,29.67
2023-05-19T12:47:50.470Z,30.02
2023-05-19T12:50:17.137Z,29.77
2023-05-19T12:52:50.898Z,29.67
2023-05-19T12:55:18.314Z,29.64
2023-05-19T12:57:56.843Z,29.51
2023-05-19T13:00:27.605Z,29.81
2023-05-19T13:03:05.064Z,29.60
2023-05-19T13:05:43.688Z,29.94
2023-05-19T13:08:11.833Z,30.35
2023-05-19T13:10:40.732Z,30.19
2023-05-19T13:13:08.338Z,30.37
2023-05-19T13:15:37.743Z,30.25
2023-05-19T13:18:07.316Z,30.30
2023-05-19T13:20:34.792Z,30.49
2023-05-19T13:23:02.680Z,30.52
2023-05-19T13:25:29.332Z,30.17
2023-05-19T13:27:56.701Z,30.52
2023-05-19T13:30:23.712Z,30.42
2023-05-19T13:32:52.413Z,30.32
2023-05-19T13:35:19.857Z,30.27
2023-05-19T13:37:46.388Z,30.01
2023-05-19T13:40:13.409Z,29.65
2023-05-19T13:42:40.834Z,30.08
2023-05-19T13:45:08.278Z,30.07
2023-05-19T13:47:35.099Z,29.93
2023-05-19T13:50:04.332Z,30.41
2023-05-19T13:52:31.012Z,30.47
2023-05-19T13:54:57.797Z,30.27
2023-05-19T13:57:25.430Z,30.56
2023-05-19T14:00:01.866Z,30.51
2023-05-19T14:02:39.506Z,30.65
2023-05-19T14:05:07.225Z,30.71
2023-05-19T14:07:34.984Z,30.53
2023-05-19T14:10:03.005Z,30.46
2023-05-19T14:12:38.198Z,30.36
2023-05-19T14:15:14.207Z,30.20
2023-05-19T14:17:40.775Z,30.66
2023-05-19T14:20:08.376Z,30.40
2023-05-19T14:22:34.959Z,30.12
2023-05-19T14:25:02.260Z,30.45
2023-05-19T14:27:28.938Z,30.39
2023-05-19T14:29:55.557Z,30.54
2023-05-19T14:32:22.487Z,30.59
2023-05-19T14:34:52.676Z,30.50
2023-05-19T14:37:19.937Z,30.68
2023-05-19T14:39:46.476Z,30.88
2023-05-19T14:42:13.250Z,30.57
2023-05-19T14:44:39.818Z,30.49
2023-05-19T14:47:07.364Z,30.77
2023-05-19T14:49:34.206Z,31.30
2023-05-19T14:52:01.120Z,31.25
2023-05-19T14:54:28.046Z,31.05
2023-05-19T14:56:54.696Z,30.92
2023-05-19T14:59:21.679Z,30.67
2023-05-19T15:01:48.450Z,30.42
2023-05-19T15:04:15.389Z,30.13
2023-05-19T15:06:42.179Z,30.43
2023-05-19T15:09:09.321Z,30.77
2023-05-19T15:11:35.985Z,30.61
2023-05-19T15:14:02.747Z,30.90
2023-05-19T15:16:29.513Z,30.88
2023-05-19T15:18:56.666Z,30.54
2023-05-19T15:21:23.395Z,30.29
2023-05-19T15:23:50.023Z,30.64
2023-05-19T15:26:16.836Z,30.66
2023-05-19T15:28:43.428Z,30.38
2023-05-19T15:31:10.195Z,30.59
2023-05-19T15:33:36.852Z,30.61
2023-05-19T15:36:03.619Z,30.76
2023-05-19T15:38:30.694Z,30.57
2023-05-19T15:40:57.455Z,30.66
2023-05-19T15:43:23.985Z,30.60
2023-05-19T15:45:54.728Z,30.27
2023-05-19T15:48:21.442Z,30.16
2023-05-19T15:50:48.693Z,30.35
2023-05-19T15:53:15.570Z,30.22
2023-05-19T15:55:42.110Z,30.42
2023-05-19T15:58:08.868Z,30.58
2023-05-19T16:00:35.753Z,30.51
2023-05-19T16:03:02.641Z,30.66
2023-05-19T16:05:29.282Z,30.97
2023-05-19T16:07:56.182Z,30.60
2023-05-19T16:10:22.851Z,30.87
2023-05-19T16:12:49.429Z,30.76
2023-05-19T16:15:16.022Z,30.87
2023-05-19T16:17:42.770Z,30.33
2023-05-19T16:20:10.204Z,30.73
2023-05-19T16:22:36.812Z,30.96
2023-05-19T16:25:03.618Z,30.89
2023-05-19T16:27:30.257Z,30.90
2023-05-19T16:29:56.880Z,31.13
2023-05-19T16:32:24.079Z,31.15
2023-05-19T16:34:50.677Z,31.38
2023-05-19T16:37:17.247Z,31.70
2023-05-19T16:39:44.816Z,31.52
2023-05-19T16:42:11.409Z,31.48
2023-05-19T16:44:37.928Z,31.20
2023-05-19T16:47:04.729Z,30.77
2023-05-19T16:49:33.448Z,31.19
2023-05-19T16:52:00.284Z,31.49
2023-05-19T16:54:28.401Z,31.64
2023-05-19T16:56:54.951Z,31.28
2023-05-19T16:59:21.648Z,31.32
2023-05-19T17:01:48.499Z,31.30
2023-05-19T17:04:15.310Z,31.57
2023-05-19T17:06:41.900Z,31.45
2023-05-19T17:09:08.475Z,31.06
2023-05-19T17:11:35.227Z,31.10
2023-05-19T17:14:04.060Z,31.39
2023-05-19T17:16:30.838Z,31.22
2023-05-19T17:18:57.473Z,31.32
2023-05-19T17:21:24.200Z,31.65
2023-05-19T17:23:51.265Z,31.57
2023-05-19T17:26:17.924Z,31.39
2023-05-19T17:28:44.600Z,31.54
2023-05-19T17:31:15.128Z,31.64
2023-05-19T17:33:41.748Z,31.32
2023-05-19T17:36:08.814Z,31.64
2023-05-19T17:38:35.697Z,31.49
2023-05-19T17:41:02.765Z,31.23
2023-05-19T17:43:29.462Z,30.91
2023-05-19T17:45:56.546Z,30.82
2023-05-19T17:48:25.722Z,30.81
2023-05-19T17:50:52.239Z,30.57
2023-05-19T17:53:19.225Z,30.58
2023-05-19T17:55:51.070Z,30.38
2023-05-19T17:58:18.724Z,30.32
2023-05-19T18:00:46.376Z,30.59
2023-05-19T18:03:13.351Z,30.46
2023-05-19T18:05:41.106Z,30.74
2023-05-19T18:08:09.424Z,30.67
2023-05-19T18:10:41.615Z,30.59
2023-05-19T18:13:09.864Z,30.76
2023-05-19T18:15:37.016Z,30.78
2023-05-19T18:18:07.713Z,30.61
2023-05-19T18:20:34.928Z,30.49
2023-05-19T18:23:02.082Z,30.98
2023-05-19T18:25:28.649Z,30.69
2023-05-19T18:27:58.100Z,30.73
2023-05-19T18:30:24.797Z,30.51
2023-05-19T18:32:51.443Z,30.59
2023-05-19T18:35:20.625Z,30.50
2023-05-19T18:37:48.364Z,30.30
2023-05-19T18:40:14.919Z,30.46
2023-05-19T18:42:41.565Z,30.35
2023-05-19T18:45:08.537Z,30.08
2023-05-19T18:47:35.252Z,29.85
2023-05-19T18:50:02.026Z,29.83
2023-05-19T18:52:29.005Z,29.65
2023-05-19T18:54:55.720Z,29.71
2023-05-19T18:57:22.344Z,29.70
2023-05-19T18:59:48.934Z,29.59
2023-05-19T19:02:15.544Z,29.60
2023-05-19T19:04:42.147Z,29.38
2023-05-19T19:07:08.832Z,29.22
2023-05-19T19:09:35.599Z,29.16
2023-05-19T19:12:02.417Z,28.93
2023-05-19T19:14:28.981Z,28.75
2023-05-19T19:16:56.024Z,29.05
2023-05-19T19:19:23.719Z,29.07
2023-05-19T19:21:50.612Z,28.73
2023-05-19T19:24:17.253Z,28.75
2023-05-19T19:26:43.963Z,28.56
2023-05-19T19:29:10.541Z,28.34
2023-05-19T19:31:37.144Z,28.31
2023-05-19T19:34:08.977Z,28.29
2023-05-19T19:36:36.229Z,28.32
2023-05-19T19:39:02.935Z,28.28
2023-05-19T19:41:30.022Z,28.39
2023-05-19T19:43:56.570Z,28.43
2023-05-19T19:46:23.298Z,28.36
2023-05-19T19:48:49.954Z,28.36
2023-05-19T19:51:16.679Z,28.32
2023-05-19T19:53:43.512Z,28.10
2023-05-19T19:56:10.168Z,28.01
2023-05-19T19:58:36.826Z,28.08
2023-05-19T20:01:04.094Z,28.05
2023-05-19T20:03:31.638Z,27.86
2023-05-19T20:05:58.666Z,27.93
2023-05-19T20:08:26.526Z,28.00
2023-05-19T20:10:53.741Z,27.80
2023-05-19T20:13:20.634Z,27.80
2023-05-19T20:15:47.712Z,27.72
2023-05-19T20:18:14.357Z,27.80
2023-05-19T20:20:41.633Z,27.75
2023-05-19T20:23:08.898Z,27.62
2023-05-19T20:25:50.120Z,27.38
2023-05-19T20:28:26.184Z,27.71
2023-05-19T20:30:52.797Z,27.56
2023-05-19T20:33:19.399Z,27.74
2023-05-19T20:35:46.124Z,27.80
2023-05-19T20:38:12.787Z,27.84
2023-05-19T20:40:39.446Z,28.20
2023-05-19T20:43:06.152Z,27.93
2023-05-19T20:45:33.056Z,27.79
2023-05-19T20:48:00.622Z,27.74
2023-05-19T20:50:27.283Z,27.61
2023-05-19T20:52:53.939Z,27.60
2023-05-19T20:55:20.516Z,27.55
2023-05-19T20:57:47.093Z,27.43
2023-05-19T21:00:14.177Z,27.33
2023-05-19T21:02:40.962Z,27.42
2023-05-19T21:05:08.131Z,27.48
2023-05-19T21:07:34.749Z,27.55
2023-05-19T21:10:01.367Z,27.36
2023-05-19T21:12:33.671Z,27.52
2023-05-19T21:15:01.407Z,27.42
2023-05-19T21:17:28.048Z,27.40
2023-05-19T21:19:57.756Z,27.38
2023-05-19T21:22:25.972Z,27.31
2023-05-19T21:24:53.559Z,27.17
2023-05-19T21:27:20.189Z,27.33
2023-05-19T21:29:47.164Z,27.16
2023-05-19T21:32:13.703Z,27.14
2023-05-19T21:34:40.340Z,27.07
2023-05-19T21:37:06.895Z,27.12
2023-05-19T21:39:33.491Z,27.33
2023-05-19T21:42:00.038Z,27.33
2023-05-19T21:44:26.776Z,27.27
2023-05-19T21:46:53.437Z,27.26
2023-05-19T21:49:20.424Z,27.19
2023-05-19T21:51:47.005Z,27.14
2023-05-19T21:54:13.566Z,26.77
2023-05-19T21:56:40.190Z,26.86
2023-05-19T21:59:06.904Z,26.70
2023-05-19T22:01:33.718Z,26.67
2023-05-19T22:04:01.197Z,26.69
2023-05-19T22:06:27.818Z,26.78
2023-05-19T22:08:54.542Z,27.07
2023-05-19T22:11:21.306Z,27.15
2023-05-19T22:13:47.905Z,26.98
2023-05-19T22:16:14.540Z,27.01
2023-05-19T22:18:41.622Z,26.92
2023-05-19T22:21:08.153Z,27.15
2023-05-19T22:23:34.790Z,27.29
2023-05-19T22:26:01.356Z,26.92
2023-05-19T22:28:27.965Z,26.93
2023-05-19T22:30:54.682Z,26.96
2023-05-19T22:33:21.287Z,26.80
2023-05-19T22:35:47.862Z,26.90
2023-05-19T22:38:14.615Z,27.00
2023-05-19T22:40:41.159Z,26.84
2023-05-19T22:43:07.737Z,26.54
2023-05-19T22:45:36.354Z,26.47
2023-05-19T22:48:03.395Z,26.25
2023-05-19T22:50:29.983Z,26.00
2023-05-19T22:52:56.625Z,26.10
2023-05-19T22:55:23.198Z,26.14
2023-05-19T22:57:50.058Z,26.03
2023-05-19T23:00:20.537Z,26.10
2023-05-19T23:02:47.346Z,26.40
2023-05-19T23:05:14.180Z,26.58
2023-05-19T23:07:40.789Z,26.09
2023-05-19T23:10:07.753Z,25.54
2023-05-19T23:12:34.485Z,25.54
2023-05-19T23:15:01.168Z,25.97
2023-05-19T23:17:27.868Z,25.70
2023-05-19T23:19:54.455Z,25.63
2023-05-19T23:22:21.080Z,25.63
2023-05-19T23:24:47.800Z,26.12
2023-05-19T23:27:14.384Z,26.37
2023-05-19T23:29:40.937Z,26.38
2023-05-19T23:32:07.842Z,26.24
2023-05-19T23:34:34.402Z,26.24
2023-05-19T23:37:01.041Z,26.43
2023-05-19T23:39:27.648Z,26.35
2023-05-19T23:41:54.223Z,26.32
2023-05-19T23:44:20.865Z,26.39
2023-05-19T23:46:47.531Z,26.14
2023-05-19T23:49:14.536Z,25.93
2023-05-19T23:51:41.274Z,25.91
2023-05-19T23:54:07.890Z,25.88
2023-05-19T23:56:34.507Z,25.92
2023-05-19T23:59:01.209Z,25.81
